Guemes, Washington
Current Conditions -  °F | °C
As of 12:56 PM on Thursday 27 Nov 2014 (Local Time) from KNUW Reporting Station
Scattered Clouds Scattered Clouds  
Wind Chill: 61°   Ceiling: Unl
Heat Index: 61°   Visibility: 10mi
Dew Point: 52°   Wind: 20mph
Humidity: 72%   Direction: 160°SSE
Pressure: 29.73"   Gusts: 26mph
Location:  48.4652°N, 122.617°W
Report Text: KNUW 272056Z AUTO 16017G23KT 10SM FEW070 SCT080 SCT120 16/11 A2973 RMK AO2 SLP070 T01610111 56019 $
Loading
Personal Weather Stations






























Interactive Weather Map New forecast layout! Learn more

10-Day Weather Forecast

Advertisements
Track Severe Weather on mobile